sensor_id;sensor_type;location;lat;lon;timestamp;P1;durP1;ratioP1;P2;durP2;ratioP2
42702;SDS011;28341;52.064;4.920;2023-03-01T00:01:12;63.57;;;39.20;;
42702;SDS011;28341;52.064;4.920;2023-03-01T00:03:18;60.13;;;38.30;;
42702;SDS011;28341;52.064;4.920;2023-03-01T00:05:23;59.40;;;38.27;;
42702;SDS011;28341;52.064;4.920;2023-03-01T00:07:27;62.10;;;40.63;;
42702;SDS011;28341;52.064;4.920;2023-03-01T00:09:35;67.43;;;41.03;;
42702;SDS011;28341;52.064;4.920;2023-03-01T00:11:40;66.33;;;41.00;;
42702;SDS011;28341;52.064;4.920;2023-03-01T00:13:46;66.10;;;40.50;;
42702;SDS011;28341;52.064;4.920;2023-03-01T00:15:53;63.13;;;41.03;;
42702;SDS011;28341;52.064;4.920;2023-03-01T00:17:58;63.97;;;40.53;;
42702;SDS011;28341;52.064;4.920;2023-03-01T00:20:03;70.07;;;42.13;;
42702;SDS011;28341;52.064;4.920;2023-03-01T00:22:10;74.47;;;43.60;;
42702;SDS011;28341;52.064;4.920;2023-03-01T00:24:15;69.43;;;42.20;;
42702;SDS011;28341;52.064;4.920;2023-03-01T00:26:23;75.90;;;45.10;;
42702;SDS011;28341;52.064;4.920;2023-03-01T00:28:28;71.53;;;44.03;;
42702;SDS011;28341;52.064;4.920;2023-03-01T00:30:33;75.20;;;44.43;;
42702;SDS011;28341;52.064;4.920;2023-03-01T00:32:39;70.93;;;43.97;;
42702;SDS011;28341;52.064;4.920;2023-03-01T00:34:47;77.37;;;46.30;;
42702;SDS011;28341;52.064;4.920;2023-03-01T00:36:54;70.50;;;43.07;;
42702;SDS011;28341;52.064;4.920;2023-03-01T00:39:07;72.83;;;45.67;;
42702;SDS011;28341;52.064;4.920;2023-03-01T00:41:16;77.77;;;45.43;;
42702;SDS011;28341;52.064;4.920;2023-03-01T00:43:25;73.30;;;44.20;;
42702;SDS011;28341;52.064;4.920;2023-03-01T00:45:29;75.20;;;45.20;;
42702;SDS011;28341;52.064;4.920;2023-03-01T00:47:34;79.40;;;46.63;;
42702;SDS011;28341;52.064;4.920;2023-03-01T00:49:39;77.80;;;45.97;;
42702;SDS011;28341;52.064;4.920;2023-03-01T00:51:43;70.13;;;43.70;;
42702;SDS011;28341;52.064;4.920;2023-03-01T00:53:49;68.83;;;44.07;;
42702;SDS011;28341;52.064;4.920;2023-03-01T00:55:56;79.43;;;46.60;;
42702;SDS011;28341;52.064;4.920;2023-03-01T00:58:01;81.97;;;46.23;;
42702;SDS011;28341;52.064;4.920;2023-03-01T01:00:09;82.37;;;46.87;;
42702;SDS011;28341;52.064;4.920;2023-03-01T01:02:15;88.10;;;50.33;;
42702;SDS011;28341;52.064;4.920;2023-03-01T01:04:20;89.63;;;49.23;;
42702;SDS011;28341;52.064;4.920;2023-03-01T01:06:25;92.87;;;49.23;;
42702;SDS011;28341;52.064;4.920;2023-03-01T01:08:32;84.70;;;49.13;;
42702;SDS011;28341;52.064;4.920;2023-03-01T01:10:36;102.20;;;54.13;;
42702;SDS011;28341;52.064;4.920;2023-03-01T01:12:41;99.40;;;52.80;;
42702;SDS011;28341;52.064;4.920;2023-03-01T01:14:46;97.60;;;52.23;;
42702;SDS011;28341;52.064;4.920;2023-03-01T01:16:53;92.77;;;49.97;;
42702;SDS011;28341;52.064;4.920;2023-03-01T01:18:57;95.80;;;52.20;;
42702;SDS011;28341;52.064;4.920;2023-03-01T01:21:05;101.63;;;53.47;;
42702;SDS011;28341;52.064;4.920;2023-03-01T01:23:11;104.33;;;53.90;;
42702;SDS011;28341;52.064;4.920;2023-03-01T01:25:16;95.87;;;52.17;;
42702;SDS011;28341;52.064;4.920;2023-03-01T01:27:21;95.17;;;51.97;;
42702;SDS011;28341;52.064;4.920;2023-03-01T01:29:25;86.13;;;47.97;;
42702;SDS011;28341;52.064;4.920;2023-03-01T01:31:30;103.73;;;51.00;;
42702;SDS011;28341;52.064;4.920;2023-03-01T01:33:38;84.80;;;48.07;;
42702;SDS011;28341;52.064;4.920;2023-03-01T01:35:44;96.23;;;50.47;;
42702;SDS011;28341;52.064;4.920;2023-03-01T01:37:49;89.57;;;48.63;;
42702;SDS011;28341;52.064;4.920;2023-03-01T01:39:53;123.50;;;50.63;;
42702;SDS011;28341;52.064;4.920;2023-03-01T01:41:58;89.53;;;48.33;;
42702;SDS011;28341;52.064;4.920;2023-03-01T01:44:11;122.17;;;50.97;;
42702;SDS011;28341;52.064;4.920;2023-03-01T01:46:21;88.50;;;47.90;;
42702;SDS011;28341;52.064;4.920;2023-03-01T01:48:34;92.78;;;49.90;;
42702;SDS011;28341;52.064;4.920;2023-03-01T01:50:54;92.00;;;49.20;;
42702;SDS011;28341;52.064;4.920;2023-03-01T01:53:01;90.30;;;47.90;;
42702;SDS011;28341;52.064;4.920;2023-03-01T01:55:06;93.97;;;48.70;;
42702;SDS011;28341;52.064;4.920;2023-03-01T01:57:14;84.17;;;48.53;;
42702;SDS011;28341;52.064;4.920;2023-03-01T01:59:28;97.87;;;50.93;;
42702;SDS011;28341;52.064;4.920;2023-03-01T02:01:34;101.83;;;51.07;;
42702;SDS011;28341;52.064;4.920;2023-03-01T02:03:42;112.50;;;52.23;;
42702;SDS011;28341;52.064;4.920;2023-03-01T02:05:50;101.90;;;51.00;;
42702;SDS011;28341;52.064;4.920;2023-03-01T02:07:59;249.67;;;52.37;;
42702;SDS011;28341;52.064;4.920;2023-03-01T02:10:04;105.53;;;45.47;;
42702;SDS011;28341;52.064;4.920;2023-03-01T02:12:10;81.60;;;44.03;;
42702;SDS011;28341;52.064;4.920;2023-03-01T02:14:14;193.83;;;48.00;;
42702;SDS011;28341;52.064;4.920;2023-03-01T02:16:20;156.53;;;46.97;;
42702;SDS011;28341;52.064;4.920;2023-03-01T02:18:24;319.77;;;51.07;;
42702;SDS011;28341;52.064;4.920;2023-03-01T02:20:34;221.33;;;46.80;;
42702;SDS011;28341;52.064;4.920;2023-03-01T02:22:44;218.80;;;49.38;;
42702;SDS011;28341;52.064;4.920;2023-03-01T02:24:51;147.33;;;47.03;;
42702;SDS011;28341;52.064;4.920;2023-03-01T02:27:21;103.63;;;44.63;;
42702;SDS011;28341;52.064;4.920;2023-03-01T02:29:31;209.97;;;47.27;;
42702;SDS011;28341;52.064;4.920;2023-03-01T02:31:36;104.27;;;46.60;;
42702;SDS011;28341;52.064;4.920;2023-03-01T02:33:45;77.23;;;43.73;;
42702;SDS011;28341;52.064;4.920;2023-03-01T02:35:50;93.60;;;47.77;;
42702;SDS011;28341;52.064;4.920;2023-03-01T02:37:55;86.07;;;48.30;;
42702;SDS011;28341;52.064;4.920;2023-03-01T02:40:02;94.23;;;48.57;;
42702;SDS011;28341;52.064;4.920;2023-03-01T02:42:12;94.97;;;49.97;;
42702;SDS011;28341;52.064;4.920;2023-03-01T02:44:18;92.83;;;48.57;;
42702;SDS011;28341;52.064;4.920;2023-03-01T02:46:28;82.43;;;46.37;;
42702;SDS011;28341;52.064;4.920;2023-03-01T02:48:39;91.87;;;49.93;;
42702;SDS011;28341;52.064;4.920;2023-03-01T02:50:51;96.63;;;49.40;;
42702;SDS011;28341;52.064;4.920;2023-03-01T02:53:07;95.50;;;48.37;;
42702;SDS011;28341;52.064;4.920;2023-03-01T02:55:14;106.57;;;53.23;;
42702;SDS011;28341;52.064;4.920;2023-03-01T02:57:20;104.90;;;52.13;;
42702;SDS011;28341;52.064;4.920;2023-03-01T02:59:29;94.67;;;50.80;;
42702;SDS011;28341;52.064;4.920;2023-03-01T03:01:43;108.13;;;52.63;;
42702;SDS011;28341;52.064;4.920;2023-03-01T03:03:47;111.87;;;54.17;;
42702;SDS011;28341;52.064;4.920;2023-03-01T03:05:52;109.87;;;56.23;;
42702;SDS011;28341;52.064;4.920;2023-03-01T03:07:58;109.43;;;54.70;;
42702;SDS011;28341;52.064;4.920;2023-03-01T03:10:13;105.33;;;53.47;;
42702;SDS011;28341;52.064;4.920;2023-03-01T03:16:31;94.53;;;48.50;;
42702;SDS011;28341;52.064;4.920;2023-03-01T03:18:38;101.57;;;51.47;;
42702;SDS011;28341;52.064;4.920;2023-03-01T03:20:43;113.73;;;53.73;;
42702;SDS011;28341;52.064;4.920;2023-03-01T03:22:48;111.83;;;54.77;;
42702;SDS011;28341;52.064;4.920;2023-03-01T03:24:55;104.63;;;54.17;;
42702;SDS011;28341;52.064;4.920;2023-03-01T03:26:59;101.33;;;52.77;;
42702;SDS011;28341;52.064;4.920;2023-03-01T03:29:04;109.17;;;53.80;;
42702;SDS011;28341;52.064;4.920;2023-03-01T03:31:08;115.83;;;55.30;;
42702;SDS011;28341;52.064;4.920;2023-03-01T03:33:13;102.17;;;54.00;;
42702;SDS011;28341;52.064;4.920;2023-03-01T03:35:21;110.60;;;55.30;;
42702;SDS011;28341;52.064;4.920;2023-03-01T03:37:30;113.03;;;54.33;;
42702;SDS011;28341;52.064;4.920;2023-03-01T03:39:47;114.27;;;54.67;;
42702;SDS011;28341;52.064;4.920;2023-03-01T03:41:55;106.93;;;54.93;;
42702;SDS011;28341;52.064;4.920;2023-03-01T03:43:59;102.17;;;52.47;;
42702;SDS011;28341;52.064;4.920;2023-03-01T03:46:04;96.33;;;49.40;;
42702;SDS011;28341;52.064;4.920;2023-03-01T03:48:09;108.10;;;52.63;;
42702;SDS011;28341;52.064;4.920;2023-03-01T03:50:14;102.77;;;52.60;;
42702;SDS011;28341;52.064;4.920;2023-03-01T03:52:23;104.33;;;52.97;;
42702;SDS011;28341;52.064;4.920;2023-03-01T03:54:28;98.73;;;50.87;;
42702;SDS011;28341;52.064;4.920;2023-03-01T03:56:32;89.67;;;49.90;;
42702;SDS011;28341;52.064;4.920;2023-03-01T03:58:37;94.73;;;49.07;;
42702;SDS011;28341;52.064;4.920;2023-03-01T04:00:43;92.20;;;49.40;;
42702;SDS011;28341;52.064;4.920;2023-03-01T04:02:48;94.10;;;51.60;;
42702;SDS011;28341;52.064;4.920;2023-03-01T04:04:56;90.30;;;49.00;;
42702;SDS011;28341;52.064;4.920;2023-03-01T04:07:03;85.40;;;46.80;;
42702;SDS011;28341;52.064;4.920;2023-03-01T04:09:08;93.20;;;51.27;;
42702;SDS011;28341;52.064;4.920;2023-03-01T04:11:13;96.03;;;49.50;;
42702;SDS011;28341;52.064;4.920;2023-03-01T04:13:29;111.47;;;55.83;;
42702;SDS011;28341;52.064;4.920;2023-03-01T04:15:33;109.10;;;52.90;;
42702;SDS011;28341;52.064;4.920;2023-03-01T04:17:38;98.00;;;51.07;;
42702;SDS011;28341;52.064;4.920;2023-03-01T04:19:43;99.50;;;51.37;;
42702;SDS011;28341;52.064;4.920;2023-03-01T04:21:49;90.60;;;49.10;;
42702;SDS011;28341;52.064;4.920;2023-03-01T04:23:56;89.33;;;46.87;;
42702;SDS011;28341;52.064;4.920;2023-03-01T04:26:00;92.80;;;50.90;;
42702;SDS011;28341;52.064;4.920;2023-03-01T04:28:05;105.93;;;53.30;;
42702;SDS011;28341;52.064;4.920;2023-03-01T04:30:10;114.20;;;55.60;;
42702;SDS011;28341;52.064;4.920;2023-03-01T04:32:15;104.20;;;55.17;;
42702;SDS011;28341;52.064;4.920;2023-03-01T04:34:20;100.23;;;53.90;;
42702;SDS011;28341;52.064;4.920;2023-03-01T04:36:27;98.57;;;54.20;;
42702;SDS011;28341;52.064;4.920;2023-03-01T04:38:32;88.57;;;48.40;;
42702;SDS011;28341;52.064;4.920;2023-03-01T04:40:40;102.27;;;53.20;;
42702;SDS011;28341;52.064;4.920;2023-03-01T04:42:45;106.20;;;53.93;;
42702;SDS011;28341;52.064;4.920;2023-03-01T04:44:50;101.70;;;54.27;;
42702;SDS011;28341;52.064;4.920;2023-03-01T04:46:54;99.70;;;52.57;;
42702;SDS011;28341;52.064;4.920;2023-03-01T04:48:59;106.23;;;56.00;;
42702;SDS011;28341;52.064;4.920;2023-03-01T04:51:04;104.77;;;54.33;;
42702;SDS011;28341;52.064;4.920;2023-03-01T04:53:09;97.90;;;52.97;;
42702;SDS011;28341;52.064;4.920;2023-03-01T04:55:13;99.40;;;50.80;;
42702;SDS011;28341;52.064;4.920;2023-03-01T04:57:21;91.57;;;50.53;;
42702;SDS011;28341;52.064;4.920;2023-03-01T04:59:25;84.60;;;48.43;;
42702;SDS011;28341;52.064;4.920;2023-03-01T05:01:30;97.77;;;52.83;;
42702;SDS011;28341;52.064;4.920;2023-03-01T05:03:35;97.53;;;50.10;;
42702;SDS011;28341;52.064;4.920;2023-03-01T05:05:40;86.33;;;49.33;;
42702;SDS011;28341;52.064;4.920;2023-03-01T05:07:44;86.47;;;49.30;;
42702;SDS011;28341;52.064;4.920;2023-03-01T05:09:49;80.80;;;46.60;;
42702;SDS011;28341;52.064;4.920;2023-03-01T05:11:54;85.13;;;47.77;;
42702;SDS011;28341;52.064;4.920;2023-03-01T05:14:01;90.27;;;49.73;;
42702;SDS011;28341;52.064;4.920;2023-03-01T05:16:07;95.90;;;50.63;;
42702;SDS011;28341;52.064;4.920;2023-03-01T05:18:13;96.03;;;51.30;;
42702;SDS011;28341;52.064;4.920;2023-03-01T05:20:17;93.47;;;51.00;;
42702;SDS011;28341;52.064;4.920;2023-03-01T05:22:23;87.20;;;48.37;;
42702;SDS011;28341;52.064;4.920;2023-03-01T05:24:28;86.17;;;49.63;;
42702;SDS011;28341;52.064;4.920;2023-03-01T05:26:33;78.27;;;46.60;;
42702;SDS011;28341;52.064;4.920;2023-03-01T05:28:40;72.90;;;44.37;;
42702;SDS011;28341;52.064;4.920;2023-03-01T05:30:47;69.63;;;43.50;;
42702;SDS011;28341;52.064;4.920;2023-03-01T05:32:52;64.70;;;42.60;;
42702;SDS011;28341;52.064;4.920;2023-03-01T05:34:56;60.47;;;41.03;;
42702;SDS011;28341;52.064;4.920;2023-03-01T05:37:01;62.67;;;41.20;;
42702;SDS011;28341;52.064;4.920;2023-03-01T05:39:07;57.27;;;39.20;;
42702;SDS011;28341;52.064;4.920;2023-03-01T05:41:13;61.57;;;40.53;;
42702;SDS011;28341;52.064;4.920;2023-03-01T05:43:18;56.30;;;37.43;;
42702;SDS011;28341;52.064;4.920;2023-03-01T05:45:23;59.33;;;38.80;;
42702;SDS011;28341;52.064;4.920;2023-03-01T05:47:32;57.37;;;37.73;;
42702;SDS011;28341;52.064;4.920;2023-03-01T05:49:36;56.30;;;37.23;;
42702;SDS011;28341;52.064;4.920;2023-03-01T05:51:41;62.87;;;39.13;;
42702;SDS011;28341;52.064;4.920;2023-03-01T05:53:46;57.93;;;37.20;;
42702;SDS011;28341;52.064;4.920;2023-03-01T05:55:51;64.10;;;40.30;;
42702;SDS011;28341;52.064;4.920;2023-03-01T05:57:57;61.60;;;38.07;;
42702;SDS011;28341;52.064;4.920;2023-03-01T06:00:03;58.57;;;37.33;;
42702;SDS011;28341;52.064;4.920;2023-03-01T06:02:12;62.23;;;38.77;;
42702;SDS011;28341;52.064;4.920;2023-03-01T06:04:19;64.37;;;39.70;;
42702;SDS011;28341;52.064;4.920;2023-03-01T06:06:24;61.67;;;39.03;;
42702;SDS011;28341;52.064;4.920;2023-03-01T06:08:28;63.63;;;39.50;;
42702;SDS011;28341;52.064;4.920;2023-03-01T06:10:33;65.73;;;38.60;;
42702;SDS011;28341;52.064;4.920;2023-03-01T06:12:38;65.37;;;39.53;;
42702;SDS011;28341;52.064;4.920;2023-03-01T06:14:45;62.03;;;37.67;;
42702;SDS011;28341;52.064;4.920;2023-03-01T06:16:50;59.67;;;37.57;;
42702;SDS011;28341;52.064;4.920;2023-03-01T06:18:54;59.50;;;39.03;;
42702;SDS011;28341;52.064;4.920;2023-03-01T06:21:02;61.20;;;39.77;;
42702;SDS011;28341;52.064;4.920;2023-03-01T06:23:08;63.97;;;39.40;;
42702;SDS011;28341;52.064;4.920;2023-03-01T06:25:14;60.73;;;37.67;;
42702;SDS011;28341;52.064;4.920;2023-03-01T06:27:21;57.43;;;37.60;;
42702;SDS011;28341;52.064;4.920;2023-03-01T06:29:25;60.23;;;37.90;;
42702;SDS011;28341;52.064;4.920;2023-03-01T06:31:30;59.53;;;36.43;;
42702;SDS011;28341;52.064;4.920;2023-03-01T06:33:34;64.67;;;39.53;;
42702;SDS011;28341;52.064;4.920;2023-03-01T06:35:39;62.40;;;39.30;;
42702;SDS011;28341;52.064;4.920;2023-03-01T06:37:47;62.80;;;37.60;;
42702;SDS011;28341;52.064;4.920;2023-03-01T06:39:51;60.73;;;38.57;;
42702;SDS011;28341;52.064;4.920;2023-03-01T06:41:56;57.73;;;37.87;;
42702;SDS011;28341;52.064;4.920;2023-03-01T06:44:00;69.90;;;39.87;;
42702;SDS011;28341;52.064;4.920;2023-03-01T06:46:05;64.00;;;38.27;;
42702;SDS011;28341;52.064;4.920;2023-03-01T06:48:10;59.27;;;37.53;;
42702;SDS011;28341;52.064;4.920;2023-03-01T06:50:15;61.03;;;38.83;;
42702;SDS011;28341;52.064;4.920;2023-03-01T06:52:20;57.87;;;37.87;;
42702;SDS011;28341;52.064;4.920;2023-03-01T06:54:27;93.33;;;56.17;;
42702;SDS011;28341;52.064;4.920;2023-03-01T06:56:32;103.83;;;60.13;;
42702;SDS011;28341;52.064;4.920;2023-03-01T06:58:37;82.63;;;46.53;;
42702;SDS011;28341;52.064;4.920;2023-03-01T07:00:41;103.07;;;52.77;;
42702;SDS011;28341;52.064;4.920;2023-03-01T07:02:46;96.23;;;53.10;;
42702;SDS011;28341;52.064;4.920;2023-03-01T07:04:51;81.33;;;48.77;;
42702;SDS011;28341;52.064;4.920;2023-03-01T07:06:56;89.87;;;52.17;;
42702;SDS011;28341;52.064;4.920;2023-03-01T07:09:01;96.87;;;57.73;;
42702;SDS011;28341;52.064;4.920;2023-03-01T07:11:08;96.13;;;57.07;;
42702;SDS011;28341;52.064;4.920;2023-03-01T07:13:12;84.20;;;47.53;;
42702;SDS011;28341;52.064;4.920;2023-03-01T07:15:17;79.60;;;45.53;;
42702;SDS011;28341;52.064;4.920;2023-03-01T07:17:21;69.07;;;44.50;;
42702;SDS011;28341;52.064;4.920;2023-03-01T07:19:26;214.07;;;133.43;;
42702;SDS011;28341;52.064;4.920;2023-03-01T07:21:30;150.00;;;89.43;;
42702;SDS011;28341;52.064;4.920;2023-03-01T07:23:35;80.33;;;51.07;;
42702;SDS011;28341;52.064;4.920;2023-03-01T07:25:39;73.63;;;46.40;;
42702;SDS011;28341;52.064;4.920;2023-03-01T07:27:51;77.70;;;46.77;;
42702;SDS011;28341;52.064;4.920;2023-03-01T07:29:56;73.30;;;47.67;;
42702;SDS011;28341;52.064;4.920;2023-03-01T07:32:00;72.10;;;46.83;;
42702;SDS011;28341;52.064;4.920;2023-03-01T07:34:05;70.63;;;46.63;;
42702;SDS011;28341;52.064;4.920;2023-03-01T07:36:10;68.70;;;46.00;;
42702;SDS011;28341;52.064;4.920;2023-03-01T07:38:15;68.53;;;44.07;;
42702;SDS011;28341;52.064;4.920;2023-03-01T07:40:20;65.57;;;43.13;;
42702;SDS011;28341;52.064;4.920;2023-03-01T07:42:24;62.87;;;41.83;;
42702;SDS011;28341;52.064;4.920;2023-03-01T07:44:32;62.07;;;41.50;;
42702;SDS011;28341;52.064;4.920;2023-03-01T07:46:37;62.60;;;41.47;;
42702;SDS011;28341;52.064;4.920;2023-03-01T07:48:42;60.57;;;39.70;;
42702;SDS011;28341;52.064;4.920;2023-03-01T07:50:46;59.43;;;39.17;;
42702;SDS011;28341;52.064;4.920;2023-03-01T07:52:51;65.67;;;40.30;;
42702;SDS011;28341;52.064;4.920;2023-03-01T07:54:55;65.23;;;38.63;;
42702;SDS011;28341;52.064;4.920;2023-03-01T07:57:00;66.40;;;39.63;;
42702;SDS011;28341;52.064;4.920;2023-03-01T07:59:04;61.80;;;40.70;;
42702;SDS011;28341;52.064;4.920;2023-03-01T08:01:12;64.87;;;40.60;;
42702;SDS011;28341;52.064;4.920;2023-03-01T08:03:18;68.40;;;40.90;;
42702;SDS011;28341;52.064;4.920;2023-03-01T08:05:22;63.77;;;41.73;;
42702;SDS011;28341;52.064;4.920;2023-03-01T08:07:27;66.23;;;39.47;;
42702;SDS011;28341;52.064;4.920;2023-03-01T08:09:33;64.60;;;40.80;;
42702;SDS011;28341;52.064;4.920;2023-03-01T08:11:38;70.43;;;42.83;;
42702;SDS011;28341;52.064;4.920;2023-03-01T08:13:43;63.13;;;41.23;;
42702;SDS011;28341;52.064;4.920;2023-03-01T08:15:47;63.93;;;40.27;;
42702;SDS011;28341;52.064;4.920;2023-03-01T08:17:54;59.83;;;39.33;;
42702;SDS011;28341;52.064;4.920;2023-03-01T08:19:59;61.87;;;39.30;;
42702;SDS011;28341;52.064;4.920;2023-03-01T08:22:04;62.80;;;39.90;;
42702;SDS011;28341;52.064;4.920;2023-03-01T08:24:09;60.37;;;38.47;;
42702;SDS011;28341;52.064;4.920;2023-03-01T08:26:14;73.50;;;50.33;;
42702;SDS011;28341;52.064;4.920;2023-03-01T08:28:20;71.27;;;45.67;;
42702;SDS011;28341;52.064;4.920;2023-03-01T08:30:25;58.70;;;36.67;;
42702;SDS011;28341;52.064;4.920;2023-03-01T08:32:32;50.93;;;34.33;;
42702;SDS011;28341;52.064;4.920;2023-03-01T08:34:43;55.70;;;36.50;;
42702;SDS011;28341;52.064;4.920;2023-03-01T08:36:50;50.50;;;33.60;;
42702;SDS011;28341;52.064;4.920;2023-03-01T08:38:55;53.70;;;34.53;;
42702;SDS011;28341;52.064;4.920;2023-03-01T08:41:00;49.90;;;34.17;;
42702;SDS011;28341;52.064;4.920;2023-03-01T08:43:04;48.20;;;34.50;;
42702;SDS011;28341;52.064;4.920;2023-03-01T08:45:10;45.15;;;31.38;;
42702;SDS011;28341;52.064;4.920;2023-03-01T08:47:18;276.33;;;198.53;;
42702;SDS011;28341;52.064;4.920;2023-03-01T08:49:22;112.23;;;70.30;;
42702;SDS011;28341;52.064;4.920;2023-03-01T08:51:29;46.95;;;30.52;;
42702;SDS011;28341;52.064;4.920;2023-03-01T08:53:37;39.67;;;26.57;;
42702;SDS011;28341;52.064;4.920;2023-03-01T08:55:41;35.88;;;25.17;;
42702;SDS011;28341;52.064;4.920;2023-03-01T08:57:46;33.67;;;25.37;;
42702;SDS011;28341;52.064;4.920;2023-03-01T08:59:51;29.50;;;22.87;;
42702;SDS011;28341;52.064;4.920;2023-03-01T09:01:56;33.10;;;21.90;;
42702;SDS011;28341;52.064;4.920;2023-03-01T09:04:00;31.60;;;20.60;;
42702;SDS011;28341;52.064;4.920;2023-03-01T09:06:05;31.70;;;20.52;;
42702;SDS011;28341;52.064;4.920;2023-03-01T09:08:13;28.35;;;19.08;;
42702;SDS011;28341;52.064;4.920;2023-03-01T09:10:18;23.58;;;17.55;;
42702;SDS011;28341;52.064;4.920;2023-03-01T09:12:22;43.80;;;29.33;;
42702;SDS011;28341;52.064;4.920;2023-03-01T09:14:28;36.00;;;24.33;;
42702;SDS011;28341;52.064;4.920;2023-03-01T09:16:32;27.30;;;18.98;;
42702;SDS011;28341;52.064;4.920;2023-03-01T09:18:37;26.40;;;16.35;;
42702;SDS011;28341;52.064;4.920;2023-03-01T09:20:42;24.73;;;15.63;;
42702;SDS011;28341;52.064;4.920;2023-03-01T09:22:46;25.20;;;15.60;;
42702;SDS011;28341;52.064;4.920;2023-03-01T09:24:53;21.80;;;14.70;;
42702;SDS011;28341;52.064;4.920;2023-03-01T09:26:59;18.48;;;13.38;;
42702;SDS011;28341;52.064;4.920;2023-03-01T09:29:04;21.63;;;14.25;;
42702;SDS011;28341;52.064;4.920;2023-03-01T09:31:09;20.08;;;14.23;;
42702;SDS011;28341;52.064;4.920;2023-03-01T09:33:15;13.95;;;11.10;;
42702;SDS011;28341;52.064;4.920;2023-03-01T09:35:20;14.50;;;10.52;;
42702;SDS011;28341;52.064;4.920;2023-03-01T09:37:24;17.17;;;10.45;;
42702;SDS011;28341;52.064;4.920;2023-03-01T09:39:30;14.65;;;9.90;;
42702;SDS011;28341;52.064;4.920;2023-03-01T09:41:47;14.02;;;9.23;;
42702;SDS011;28341;52.064;4.920;2023-03-01T09:43:56;13.88;;;9.35;;
42702;SDS011;28341;52.064;4.920;2023-03-01T09:46:06;19.13;;;9.93;;
42702;SDS011;28341;52.064;4.920;2023-03-01T09:48:15;16.25;;;11.23;;
42702;SDS011;28341;52.064;4.920;2023-03-01T09:50:22;15.77;;;10.30;;
42702;SDS011;28341;52.064;4.920;2023-03-01T09:52:28;13.75;;;9.32;;
42702;SDS011;28341;52.064;4.920;2023-03-01T09:54:37;14.02;;;11.15;;
42702;SDS011;28341;52.064;4.920;2023-03-01T09:56:44;16.08;;;11.00;;
42702;SDS011;28341;52.064;4.920;2023-03-01T09:59:00;15.10;;;10.95;;
42702;SDS011;28341;52.064;4.920;2023-03-01T10:01:23;18.55;;;10.52;;
42702;SDS011;28341;52.064;4.920;2023-03-01T10:03:36;15.15;;;11.10;;
42702;SDS011;28341;52.064;4.920;2023-03-01T10:05:54;17.38;;;11.48;;
42702;SDS011;28341;52.064;4.920;2023-03-01T10:08:21;14.93;;;10.02;;
42702;SDS011;28341;52.064;4.920;2023-03-01T10:10:39;13.63;;;9.70;;
42702;SDS011;28341;52.064;4.920;2023-03-01T10:12:49;12.70;;;9.82;;
42702;SDS011;28341;52.064;4.920;2023-03-01T10:14:56;14.10;;;9.35;;
42702;SDS011;28341;52.064;4.920;2023-03-01T10:17:08;11.32;;;8.02;;
42702;SDS011;28341;52.064;4.920;2023-03-01T10:19:30;12.52;;;5.95;;
42702;SDS011;28341;52.064;4.920;2023-03-01T10:21:39;10.73;;;7.15;;
42702;SDS011;28341;52.064;4.920;2023-03-01T10:23:49;11.90;;;8.48;;
42702;SDS011;28341;52.064;4.920;2023-03-01T10:26:08;10.75;;;8.20;;
42702;SDS011;28341;52.064;4.920;2023-03-01T10:28:31;11.30;;;8.40;;
42702;SDS011;28341;52.064;4.920;2023-03-01T10:30:44;18.60;;;8.52;;
42702;SDS011;28341;52.064;4.920;2023-03-01T10:32:49;11.73;;;8.63;;
42702;SDS011;28341;52.064;4.920;2023-03-01T10:34:55;13.85;;;9.50;;
42702;SDS011;28341;52.064;4.920;2023-03-01T10:37:01;11.15;;;7.80;;
42702;SDS011;28341;52.064;4.920;2023-03-01T10:39:15;15.60;;;7.53;;
42702;SDS011;28341;52.064;4.920;2023-03-01T10:41:22;10.15;;;7.60;;
42702;SDS011;28341;52.064;4.920;2023-03-01T10:43:32;10.63;;;7.80;;
42702;SDS011;28341;52.064;4.920;2023-03-01T10:45:47;10.32;;;7.20;;
42702;SDS011;28341;52.064;4.920;2023-03-01T10:48:00;10.90;;;6.97;;
42702;SDS011;28341;52.064;4.920;2023-03-01T10:50:18;9.02;;;6.20;;
42702;SDS011;28341;52.064;4.920;2023-03-01T10:52:25;10.13;;;6.57;;
42702;SDS011;28341;52.064;4.920;2023-03-01T10:54:36;10.07;;;6.65;;
42702;SDS011;28341;52.064;4.920;2023-03-01T10:56:48;9.73;;;6.88;;
42702;SDS011;28341;52.064;4.920;2023-03-01T10:58:59;9.40;;;6.45;;
42702;SDS011;28341;52.064;4.920;2023-03-01T11:03:32;8.48;;;6.03;;
42702;SDS011;28341;52.064;4.920;2023-03-01T11:05:49;8.55;;;6.72;;
42702;SDS011;28341;52.064;4.920;2023-03-01T11:07:57;8.05;;;5.75;;
42702;SDS011;28341;52.064;4.920;2023-03-01T11:10:10;8.65;;;6.53;;
42702;SDS011;28341;52.064;4.920;2023-03-01T11:12:19;8.57;;;6.57;;
42702;SDS011;28341;52.064;4.920;2023-03-01T11:14:27;10.57;;;6.10;;
42702;SDS011;28341;52.064;4.920;2023-03-01T11:16:42;7.97;;;5.97;;
42702;SDS011;28341;52.064;4.920;2023-03-01T11:18:55;13.02;;;6.18;;
42702;SDS011;28341;52.064;4.920;2023-03-01T11:21:01;9.52;;;5.47;;
42702;SDS011;28341;52.064;4.920;2023-03-01T11:23:08;9.20;;;5.60;;
42702;SDS011;28341;52.064;4.920;2023-03-01T11:25:15;10.30;;;5.85;;
42702;SDS011;28341;52.064;4.920;2023-03-01T11:27:24;9.15;;;6.05;;
42702;SDS011;28341;52.064;4.920;2023-03-01T11:29:35;7.45;;;5.60;;
42702;SDS011;28341;52.064;4.920;2023-03-01T11:31:43;9.20;;;5.70;;
42702;SDS011;28341;52.064;4.920;2023-03-01T11:33:49;10.65;;;5.90;;
42702;SDS011;28341;52.064;4.920;2023-03-01T11:36:00;9.32;;;6.63;;
42702;SDS011;28341;52.064;4.920;2023-03-01T11:38:16;9.00;;;6.47;;
42702;SDS011;28341;52.064;4.920;2023-03-01T11:40:25;11.93;;;7.00;;
42702;SDS011;28341;52.064;4.920;2023-03-01T11:42:37;10.82;;;6.40;;
42702;SDS011;28341;52.064;4.920;2023-03-01T11:44:55;12.50;;;7.32;;
42702;SDS011;28341;52.064;4.920;2023-03-01T11:49:43;7.95;;;5.90;;
42702;SDS011;28341;52.064;4.920;2023-03-01T11:52:06;11.50;;;8.00;;
42702;SDS011;28341;52.064;4.920;2023-03-01T11:56:32;10.02;;;7.47;;
42702;SDS011;28341;52.064;4.920;2023-03-01T11:58:54;11.25;;;7.07;;
42702;SDS011;28341;52.064;4.920;2023-03-01T12:01:11;15.38;;;7.00;;
42702;SDS011;28341;52.064;4.920;2023-03-01T12:03:28;9.10;;;6.50;;
42702;SDS011;28341;52.064;4.920;2023-03-01T12:08:24;8.75;;;6.05;;
42702;SDS011;28341;52.064;4.920;2023-03-01T12:10:38;7.72;;;6.22;;
42702;SDS011;28341;52.064;4.920;2023-03-01T12:12:57;11.88;;;6.30;;
42702;SDS011;28341;52.064;4.920;2023-03-01T12:15:25;9.98;;;5.80;;
42702;SDS011;28341;52.064;4.920;2023-03-01T12:17:52;9.90;;;5.75;;
42702;SDS011;28341;52.064;4.920;2023-03-01T12:20:18;8.93;;;5.78;;
42702;SDS011;28341;52.064;4.920;2023-03-01T12:24:40;9.40;;;6.78;;
42702;SDS011;28341;52.064;4.920;2023-03-01T12:27:37;10.15;;;6.28;;
42702;SDS011;28341;52.064;4.920;2023-03-01T12:29:56;10.63;;;6.68;;
42702;SDS011;28341;52.064;4.920;2023-03-01T12:32:13;9.75;;;6.68;;
42702;SDS011;28341;52.064;4.920;2023-03-01T12:34:49;9.55;;;5.88;;
42702;SDS011;28341;52.064;4.920;2023-03-01T12:37:30;9.25;;;6.25;;
42702;SDS011;28341;52.064;4.920;2023-03-01T12:39:45;8.07;;;5.50;;
42702;SDS011;28341;52.064;4.920;2023-03-01T12:42:02;7.53;;;5.05;;
42702;SDS011;28341;52.064;4.920;2023-03-01T12:44:19;7.28;;;4.80;;
42702;SDS011;28341;52.064;4.920;2023-03-01T12:46:47;7.95;;;4.65;;